Time;durP1;ratioP1;P1;durP2;ratioP2;P2;SDS_P1;SDS_P2;PMS_P1;PMS_P2;Temp;Humidity;BMP_temperature;BMP_pressure;BME280_temperature;BME280_humidity;BME280_pressure;Samples;Min_cycle;Max_cycle;Signal;HPM_P1;HPM_P2
2021/07/25 00:00:49;;;;;;;131.23;53.67;;;;;;;;;;5084596;28;20182;-89
2021/07/25 00:03:14;;;;;;;139.23;53.25;;;;;;;;;;5085170;28;20097;-89
2021/07/25 00:05:41;;;;;;;137.30;54.17;;;;;;;;;;5084672;28;20024;-89
2021/07/25 00:08:11;;;;;;;137.25;52.83;;;;;;;;;;5102697;28;20566;-90
2021/07/25 00:10:40;;;;;;;133.68;53.97;;;;;;;;;;5102807;28;20105;-89
2021/07/25 00:13:06;;;;;;;110.28;50.38;;;;;;;;;;5103944;28;20097;-90
2021/07/25 00:15:31;;;;;;;124.65;50.10;;;;;;;;;;5103213;28;20031;-89
2021/07/25 00:17:57;;;;;;;114.25;49.83;;;;;;;;;;5102394;28;20031;-89
2021/07/25 00:20:22;;;;;;;122.80;51.13;;;;;;;;;;5085662;28;20079;-90
2021/07/25 00:22:47;;;;;;;132.10;52.90;;;;;;;;;;5102697;28;20045;-90
2021/07/25 00:25:18;;;;;;;126.00;52.63;;;;;;;;;;5085349;28;20052;-90
2021/07/25 00:27:44;;;;;;;132.25;55.63;;;;;;;;;;5102159;28;20027;-89
2021/07/25 00:30:11;;;;;;;131.95;54.13;;;;;;;;;;5102256;28;20085;-89
2021/07/25 00:32:37;;;;;;;120.70;53.58;;;;;;;;;;5100925;28;20070;-89
2021/07/25 00:35:03;;;;;;;120.35;53.17;;;;;;;;;;5100281;28;20051;-91
2021/07/25 00:37:29;;;;;;;118.75;53.10;;;;;;;;;;5101362;28;20039;-90
2021/07/25 00:39:54;;;;;;;123.93;53.42;;;;;;;;;;5101542;28;20023;-90
2021/07/25 00:42:19;;;;;;;134.65;55.35;;;;;;;;;;5102213;28;20051;-89
2021/07/25 00:44:45;;;;;;;129.70;57.15;;;;;;;;;;5102856;28;20020;-89
2021/07/25 00:47:10;;;;;;;135.02;56.17;;;;;;;;;;5101686;28;20079;-89
2021/07/25 00:49:36;;;;;;;140.15;58.17;;;;;;;;;;5083348;28;20020;-90
2021/07/25 00:52:04;;;;;;;149.95;62.05;;;;;;;;;;5104697;28;20024;-89
2021/07/25 00:54:30;;;;;;;132.90;60.30;;;;;;;;;;5117489;28;20028;-90
2021/07/25 00:56:55;;;;;;;147.45;64.20;;;;;;;;;;5085507;28;20020;-90
2021/07/25 00:59:21;;;;;;;150.20;63.95;;;;;;;;;;5086295;28;20066;-90
2021/07/25 01:01:49;;;;;;;146.85;61.45;;;;;;;;;;5084103;28;20020;-90
2021/07/25 01:04:45;;;;;;;147.98;61.70;;;;;;;;;;5103464;28;20524;-90
2021/07/25 01:07:14;;;;;;;138.52;62.20;;;;;;;;;;5103007;28;20107;-89
2021/07/25 01:10:01;;;;;;;135.25;60.47;;;;;;;;;;5102271;28;20004;-90
2021/07/25 01:12:47;;;;;;;149.43;61.67;;;;;;;;;;5084248;28;20024;-90
2021/07/25 01:15:18;;;;;;;134.02;60.03;;;;;;;;;;5102363;28;20433;-89
2021/07/25 01:17:43;;;;;;;136.85;59.95;;;;;;;;;;5104093;28;20024;-89
2021/07/25 01:20:11;;;;;;;139.90;61.90;;;;;;;;;;5106389;28;20060;-90
2021/07/25 01:22:43;;;;;;;154.88;64.57;;;;;;;;;;5107222;28;20036;-90
2021/07/25 01:25:11;;;;;;;138.05;58.65;;;;;;;;;;5107689;28;20170;-90
2021/07/25 01:27:45;;;;;;;127.20;56.80;;;;;;;;;;5088308;28;20398;-90
2021/07/25 01:30:14;;;;;;;127.00;55.78;;;;;;;;;;5103789;28;20084;-90
2021/07/25 01:32:41;;;;;;;113.18;53.30;;;;;;;;;;5104014;28;20027;-90
2021/07/25 01:35:08;;;;;;;115.95;52.40;;;;;;;;;;5104145;28;20027;-91
2021/07/25 01:37:34;;;;;;;105.53;50.38;;;;;;;;;;5104051;28;20016;-90
2021/07/25 01:39:59;;;;;;;108.30;49.45;;;;;;;;;;5104725;28;20024;-90
2021/07/25 01:42:26;;;;;;;88.28;44.30;;;;;;;;;;5103854;28;20019;-90
2021/07/25 01:44:52;;;;;;;91.10;44.75;;;;;;;;;;5085183;28;20028;-89
2021/07/25 01:47:17;;;;;;;94.72;45.42;;;;;;;;;;5104150;28;20084;-90
2021/07/25 01:49:42;;;;;;;86.93;43.13;;;;;;;;;;5085143;28;20035;-90
2021/07/25 01:52:08;;;;;;;84.45;43.13;;;;;;;;;;5085732;28;20019;-90
2021/07/25 01:54:34;;;;;;;79.55;44.08;;;;;;;;;;5086774;28;20027;-89
2021/07/25 01:57:00;;;;;;;88.20;41.55;;;;;;;;;;5103985;28;20093;-89
2021/07/25 01:59:25;;;;;;;79.85;39.63;;;;;;;;;;5104335;28;20083;-91
2021/07/25 02:01:50;;;;;;;74.57;40.08;;;;;;;;;;5103432;28;20028;-90
2021/07/25 02:04:16;;;;;;;76.30;39.42;;;;;;;;;;5103196;28;20433;-90
2021/07/25 02:06:41;;;;;;;75.43;40.05;;;;;;;;;;5102289;28;20394;-90
2021/07/25 02:09:08;;;;;;;62.92;35.58;;;;;;;;;;5102319;28;20028;-91
2021/07/25 02:11:33;;;;;;;71.00;35.95;;;;;;;;;;5103298;28;20036;-90
2021/07/25 02:13:59;;;;;;;78.53;37.33;;;;;;;;;;5102822;28;20403;-91
2021/07/25 02:16:24;;;;;;;78.63;39.38;;;;;;;;;;5102549;28;20026;-90
2021/07/25 02:18:49;;;;;;;83.78;38.40;;;;;;;;;;5102404;28;20031;-91
2021/07/25 02:21:15;;;;;;;84.05;38.95;;;;;;;;;;5084742;28;20020;-91
2021/07/25 02:23:40;;;;;;;75.28;39.35;;;;;;;;;;5102730;28;20020;-90
2021/07/25 02:26:05;;;;;;;80.57;41.60;;;;;;;;;;5085367;28;20028;-89
2021/07/25 02:28:31;;;;;;;75.28;40.85;;;;;;;;;;5102613;28;20114;-90
2021/07/25 02:30:56;;;;;;;80.22;38.83;;;;;;;;;;5102189;28;20036;-89
2021/07/25 02:33:22;;;;;;;75.75;39.97;;;;;;;;;;5114480;28;20044;-89
2021/07/25 02:35:47;;;;;;;88.60;39.83;;;;;;;;;;5104811;28;20061;-90
2021/07/25 02:38:12;;;;;;;81.97;40.25;;;;;;;;;;5085870;28;20028;-90
2021/07/25 02:40:38;;;;;;;77.78;39.95;;;;;;;;;;5103319;28;20464;-91
2021/07/25 02:43:03;;;;;;;89.30;40.78;;;;;;;;;;5102851;28;20507;-90
2021/07/25 02:45:28;;;;;;;87.20;40.72;;;;;;;;;;5104178;28;20020;-91
2021/07/25 02:47:54;;;;;;;94.15;42.42;;;;;;;;;;5085269;28;20018;-90
2021/07/25 02:50:19;;;;;;;88.07;41.05;;;;;;;;;;5103219;28;20028;-89
2021/07/25 02:52:44;;;;;;;84.25;40.63;;;;;;;;;;5102952;28;20027;-90
2021/07/25 02:55:10;;;;;;;84.78;41.33;;;;;;;;;;5084893;28;20028;-90
2021/07/25 02:57:36;;;;;;;90.88;40.70;;;;;;;;;;5084950;28;20483;-90
2021/07/25 03:00:01;;;;;;;79.05;39.40;;;;;;;;;;5086182;28;20406;-90
2021/07/25 03:02:26;;;;;;;74.38;38.65;;;;;;;;;;5105853;28;20024;-91
2021/07/25 03:04:52;;;;;;;70.20;37.38;;;;;;;;;;5086420;28;20088;-91
2021/07/25 03:07:17;;;;;;;79.57;38.22;;;;;;;;;;5104341;28;20035;-90
2021/07/25 03:09:42;;;;;;;78.45;38.28;;;;;;;;;;5088144;28;20073;-91
2021/07/25 03:12:08;;;;;;;72.95;37.50;;;;;;;;;;5104500;28;20024;-91
2021/07/25 03:14:33;;;;;;;71.95;37.85;;;;;;;;;;5105140;28;20027;-91
2021/07/25 03:16:59;;;;;;;75.05;36.67;;;;;;;;;;5105610;28;20020;-90
2021/07/25 03:19:24;;;;;;;74.65;37.70;;;;;;;;;;5086072;28;20031;-90
2021/07/25 03:21:49;;;;;;;80.03;40.20;;;;;;;;;;5105478;28;20421;-91
2021/07/25 03:24:15;;;;;;;81.15;37.90;;;;;;;;;;5105196;28;20073;-91
2021/07/25 03:26:40;;;;;;;82.18;38.55;;;;;;;;;;5105776;28;20020;-90
2021/07/25 03:29:06;;;;;;;75.47;39.53;;;;;;;;;;5104356;28;20027;-90
2021/07/25 03:31:31;;;;;;;80.10;40.65;;;;;;;;;;5091378;28;20027;-90
2021/07/25 03:33:59;;;;;;;83.40;44.03;;;;;;;;;;5112070;28;20471;-91
2021/07/25 03:36:24;;;;;;;90.32;42.35;;;;;;;;;;5086881;28;20024;-91
2021/07/25 03:38:50;;;;;;;96.47;44.22;;;;;;;;;;5105202;28;20483;-90
2021/07/25 03:41:16;;;;;;;97.22;45.80;;;;;;;;;;5109578;28;20043;-90
2021/07/25 03:43:41;;;;;;;91.47;44.58;;;;;;;;;;5090930;28;20057;-90
2021/07/25 03:46:06;;;;;;;102.65;46.47;;;;;;;;;;5104868;28;20024;-91
2021/07/25 03:48:32;;;;;;;105.55;47.13;;;;;;;;;;5104739;28;20020;-91
2021/07/25 03:50:57;;;;;;;114.97;50.22;;;;;;;;;;5104722;28;20032;-91
2021/07/25 03:53:23;;;;;;;122.05;52.47;;;;;;;;;;5086845;28;20091;-91
2021/07/25 03:55:48;;;;;;;130.52;50.92;;;;;;;;;;5104007;28;20088;-91
2021/07/25 03:58:14;;;;;;;112.18;48.85;;;;;;;;;;5086518;28;20092;-91
2021/07/25 04:00:39;;;;;;;114.18;48.53;;;;;;;;;;5086345;28;20051;-91
2021/07/25 04:03:05;;;;;;;118.63;50.78;;;;;;;;;;5104579;28;20487;-91
2021/07/25 04:05:30;;;;;;;114.65;51.92;;;;;;;;;;5103875;28;20526;-90
2021/07/25 04:07:55;;;;;;;125.55;50.92;;;;;;;;;;5104066;28;20069;-92
2021/07/25 04:10:21;;;;;;;113.85;49.05;;;;;;;;;;5085617;28;20092;-91
2021/07/25 04:12:47;;;;;;;105.18;48.83;;;;;;;;;;5104871;28;20503;-91
2021/07/25 04:15:13;;;;;;;101.53;48.97;;;;;;;;;;5103497;28;20024;-91
2021/07/25 04:17:38;;;;;;;107.85;49.80;;;;;;;;;;5104093;28;20028;-90
2021/07/25 04:20:04;;;;;;;113.88;49.75;;;;;;;;;;5103954;28;20032;-91
2021/07/25 04:22:35;;;;;;;123.35;50.47;;;;;;;;;;5086419;28;20193;-90
2021/07/25 04:25:01;;;;;;;115.57;50.28;;;;;;;;;;5104245;28;20038;-90
2021/07/25 04:27:27;;;;;;;121.82;50.92;;;;;;;;;;5105229;28;20067;-91
2021/07/25 04:29:55;;;;;;;118.57;49.65;;;;;;;;;;5104186;28;20030;-91
2021/07/25 04:32:22;;;;;;;115.32;48.63;;;;;;;;;;5099680;28;20028;-90
2021/07/25 04:34:47;;;;;;;110.13;48.88;;;;;;;;;;5080059;28;20053;-90
2021/07/25 04:37:22;;;;;;;116.90;50.70;;;;;;;;;;5080152;28;20114;-90
2021/07/25 04:39:48;;;;;;;119.20;52.65;;;;;;;;;;5098630;28;20024;-90
2021/07/25 04:42:20;;;;;;;116.60;51.10;;;;;;;;;;5079998;28;20020;-90
2021/07/25 04:44:54;;;;;;;129.77;51.50;;;;;;;;;;5098176;28;20095;-90
2021/07/25 04:47:28;;;;;;;137.07;50.90;;;;;;;;;;5098082;28;20028;-90
2021/07/25 04:50:05;;;;;;;115.55;48.65;;;;;;;;;;5099543;28;20479;-91
2021/07/25 04:52:37;;;;;;;99.82;46.28;;;;;;;;;;5079918;28;20028;-91
2021/07/25 04:55:03;;;;;;;100.00;44.47;;;;;;;;;;5079301;28;20456;-91
2021/07/25 04:57:36;;;;;;;94.55;45.72;;;;;;;;;;5080232;28;20130;-91
2021/07/25 05:00:02;;;;;;;99.75;44.28;;;;;;;;;;5098450;28;20028;-91
2021/07/25 05:02:29;;;;;;;94.68;44.50;;;;;;;;;;5098631;28;20020;-91
2021/07/25 05:04:55;;;;;;;88.13;43.03;;;;;;;;;;5080831;28;20030;-91
2021/07/25 05:07:20;;;;;;;80.40;41.17;;;;;;;;;;5098346;28;20023;-91
2021/07/25 05:09:46;;;;;;;85.57;40.45;;;;;;;;;;5080575;28;20063;-91
2021/07/25 05:12:22;;;;;;;83.47;41.05;;;;;;;;;;5081721;28;20115;-91
2021/07/25 05:15:03;;;;;;;86.03;40.25;;;;;;;;;;5099395;28;20020;-91
2021/07/25 05:17:43;;;;;;;99.03;43.72;;;;;;;;;;5098348;28;20356;-91
2021/07/25 05:20:16;;;;;;;90.60;42.40;;;;;;;;;;5080434;28;20024;-91
2021/07/25 05:22:50;;;;;;;;;;;;;;;;;;5084656;28;20053;-91
2021/07/25 05:25:19;;;;;;;84.60;40.67;;;;;;;;;;5109271;28;19916;-91
2021/07/25 05:27:48;;;;;;;83.13;40.05;;;;;;;;;;5080711;28;20020;-91
2021/07/25 05:30:15;;;;;;;82.78;39.20;;;;;;;;;;5080602;28;20020;-91
2021/07/25 05:32:41;;;;;;;90.65;39.28;;;;;;;;;;5099138;28;20032;-90
2021/07/25 05:35:07;;;;;;;84.47;37.38;;;;;;;;;;5082095;28;20023;-90
2021/07/25 05:37:32;;;;;;;81.45;36.72;;;;;;;;;;5099038;28;20051;-90
2021/07/25 05:39:58;;;;;;;62.33;33.60;;;;;;;;;;5100560;28;20024;-89
2021/07/25 05:42:24;;;;;;;61.25;30.65;;;;;;;;;;5098139;28;20048;-89
2021/07/25 05:44:49;;;;;;;57.22;29.63;;;;;;;;;;5098317;28;20034;-89
2021/07/25 05:47:14;;;;;;;57.40;28.40;;;;;;;;;;5080633;28;20051;-91
2021/07/25 05:49:40;;;;;;;51.60;28.38;;;;;;;;;;5083188;28;20024;-91
2021/07/25 05:52:05;;;;;;;50.28;25.50;;;;;;;;;;5101946;28;20035;-90
2021/07/25 05:54:31;;;;;;;45.53;24.13;;;;;;;;;;5099986;28;20028;-90
2021/07/25 05:56:56;;;;;;;43.92;24.83;;;;;;;;;;5096636;28;20467;-90
2021/07/25 05:59:22;;;;;;;54.05;25.17;;;;;;;;;;5078302;28;20035;-90
2021/07/25 06:01:47;;;;;;;44.50;25.30;;;;;;;;;;5097143;28;20040;-90
2021/07/25 06:04:12;;;;;;;41.58;21.48;;;;;;;;;;5099411;28;20028;-90
2021/07/25 06:06:38;;;;;;;35.20;20.55;;;;;;;;;;5101687;28;20012;-90
2021/07/25 06:09:03;;;;;;;33.90;18.67;;;;;;;;;;5083273;28;20024;-90
2021/07/25 06:11:30;;;;;;;40.17;19.98;;;;;;;;;;5102013;28;20387;-91
2021/07/25 06:13:55;;;;;;;34.38;18.80;;;;;;;;;;5100437;28;20031;-90
2021/07/25 06:16:21;;;;;;;28.48;16.60;;;;;;;;;;5081910;28;20020;-90
2021/07/25 06:18:48;;;;;;;33.65;16.83;;;;;;;;;;5100596;28;20050;-91
2021/07/25 06:21:23;;;;;;;29.40;17.20;;;;;;;;;;5099535;28;20509;-90
2021/07/25 06:23:50;;;;;;;34.10;17.42;;;;;;;;;;5083004;28;20028;-90
2021/07/25 06:26:16;;;;;;;29.98;16.10;;;;;;;;;;5101134;28;20030;-90
2021/07/25 06:28:42;;;;;;;23.27;14.55;;;;;;;;;;5110160;28;20028;-91
2021/07/25 06:31:08;;;;;;;24.73;14.32;;;;;;;;;;5110693;28;20024;-90
2021/07/25 06:33:33;;;;;;;20.77;12.65;;;;;;;;;;5102181;28;20031;-90
2021/07/25 06:35:58;;;;;;;23.15;11.82;;;;;;;;;;5101099;28;20030;-90
2021/07/25 06:38:24;;;;;;;25.73;13.25;;;;;;;;;;5100331;28;20024;-91
2021/07/25 06:40:51;;;;;;;19.50;11.15;;;;;;;;;;5082560;28;20031;-90
2021/07/25 06:43:20;;;;;;;19.92;11.52;;;;;;;;;;5099690;28;20479;-90
2021/07/25 06:45:46;;;;;;;17.13;11.45;;;;;;;;;;5099935;28;20035;-90
2021/07/25 06:48:19;;;;;;;19.20;10.93;;;;;;;;;;5082482;28;20020;-91
2021/07/25 06:50:47;;;;;;;15.32;9.95;;;;;;;;;;5099963;28;20395;-90
2021/07/25 06:53:13;;;;;;;18.48;11.13;;;;;;;;;;5099704;28;20024;-90
2021/07/25 06:55:38;;;;;;;13.88;9.20;;;;;;;;;;5081837;28;20031;-90
2021/07/25 06:58:03;;;;;;;14.27;9.07;;;;;;;;;;5099577;28;20097;-91
2021/07/25 07:00:29;;;;;;;18.50;9.25;;;;;;;;;;5081466;28;20023;-91
2021/07/25 07:02:55;;;;;;;16.33;11.48;;;;;;;;;;5081856;28;20027;-90
2021/07/25 07:05:23;;;;;;;27.50;15.85;;;;;;;;;;5098791;28;20054;-90
2021/07/25 07:07:50;;;;;;;30.70;17.65;;;;;;;;;;5080921;28;20084;-90
2021/07/25 07:10:17;;;;;;;29.88;20.27;;;;;;;;;;5099739;28;20024;-90
2021/07/25 07:12:44;;;;;;;38.03;21.38;;;;;;;;;;5099753;28;20028;-90
2021/07/25 07:15:11;;;;;;;35.97;20.33;;;;;;;;;;5080611;28;20023;-90
2021/07/25 07:17:38;;;;;;;36.03;21.52;;;;;;;;;;5098206;28;20024;-91
2021/07/25 07:20:07;;;;;;;36.63;21.17;;;;;;;;;;5080271;28;20028;-90
2021/07/25 07:22:33;;;;;;;42.28;22.13;;;;;;;;;;5102374;28;20023;-90
2021/07/25 07:24:59;;;;;;;39.00;20.38;;;;;;;;;;5099878;28;20099;-91
2021/07/25 07:27:25;;;;;;;31.80;19.88;;;;;;;;;;5098670;28;20077;-90
2021/07/25 07:29:51;;;;;;;30.73;19.25;;;;;;;;;;5098849;28;20449;-91
2021/07/25 07:32:17;;;;;;;25.58;18.25;;;;;;;;;;5098437;28;20054;-91
2021/07/25 07:34:43;;;;;;;28.08;17.25;;;;;;;;;;5097848;28;20028;-90
2021/07/25 07:37:09;;;;;;;25.27;14.77;;;;;;;;;;5098638;28;20027;-91
2021/07/25 07:39:41;;;;;;;29.83;13.82;;;;;;;;;;5080893;28;20034;-91
2021/07/25 07:42:07;;;;;;;21.58;12.27;;;;;;;;;;5098474;28;20395;-91
2021/07/25 07:44:33;;;;;;;21.60;13.23;;;;;;;;;;5098217;28;20024;-91
2021/07/25 07:46:59;;;;;;;22.33;12.55;;;;;;;;;;5098386;28;20027;-90
2021/07/25 07:49:25;;;;;;;20.45;11.90;;;;;;;;;;5080042;28;20479;-90
2021/07/25 07:51:51;;;;;;;20.00;11.63;;;;;;;;;;5098006;28;20097;-91
2021/07/25 07:54:16;;;;;;;19.90;11.75;;;;;;;;;;5082013;28;20047;-90
2021/07/25 07:56:41;;;;;;;20.08;12.02;;;;;;;;;;5098293;28;20030;-91
2021/07/25 07:59:07;;;;;;;19.85;11.93;;;;;;;;;;5097668;28;20027;-91
2021/07/25 08:01:32;;;;;;;18.92;10.88;;;;;;;;;;5079919;28;20479;-90
2021/07/25 08:03:58;;;;;;;20.70;11.02;;;;;;;;;;5097721;28;20030;-90
2021/07/25 08:06:23;;;;;;;17.92;10.60;;;;;;;;;;5097415;28;20024;-91
2021/07/25 08:08:48;;;;;;;16.83;11.00;;;;;;;;;;5079328;28;20020;-90
2021/07/25 08:11:14;;;;;;;18.30;11.32;;;;;;;;;;5090323;28;20027;-90
2021/07/25 08:13:39;;;;;;;21.08;11.93;;;;;;;;;;5101936;28;20032;-91
2021/07/25 08:16:04;;;;;;;21.58;11.93;;;;;;;;;;5097572;28;20081;-91
2021/07/25 08:18:30;;;;;;;19.60;12.18;;;;;;;;;;5079117;28;20118;-90
2021/07/25 08:20:56;;;;;;;17.85;12.15;;;;;;;;;;5096910;28;20079;-90
2021/07/25 08:23:21;;;;;;;20.17;11.27;;;;;;;;;;5096666;28;20031;-90
2021/07/25 08:25:47;;;;;;;16.52;10.65;;;;;;;;;;5096958;28;20028;-91
2021/07/25 08:28:12;;;;;;;18.02;11.63;;;;;;;;;;5079828;28;20012;-91
2021/07/25 08:30:38;;;;;;;23.05;12.82;;;;;;;;;;5099006;28;20036;-90
2021/07/25 08:33:03;;;;;;;23.98;12.75;;;;;;;;;;5097654;28;20047;-91
2021/07/25 08:35:29;;;;;;;24.17;13.30;;;;;;;;;;5099789;28;20024;-90
2021/07/25 08:37:54;;;;;;;19.73;13.48;;;;;;;;;;5097278;28;20077;-91
2021/07/25 08:40:21;;;;;;;22.30;14.68;;;;;;;;;;5096382;28;20395;-90
2021/07/25 08:43:12;;;;;;;18.65;14.05;;;;;;;;;;5096659;28;20395;-91
2021/07/25 08:45:40;;;;;;;22.65;14.10;;;;;;;;;;5078451;28;20020;-91
2021/07/25 08:48:17;;;;;;;19.65;12.95;;;;;;;;;;5078977;28;20024;-91
2021/07/25 08:50:55;;;;;;;16.80;12.45;;;;;;;;;;5098016;28;20050;-91
2021/07/25 08:53:22;;;;;;;16.13;11.95;;;;;;;;;;5096553;28;20120;-90
2021/07/25 08:55:47;;;;;;;18.50;12.80;;;;;;;;;;5078675;28;20024;-90
2021/07/25 08:58:13;;;;;;;17.50;12.48;;;;;;;;;;5079234;28;20023;-91
2021/07/25 09:00:39;;;;;;;25.15;13.10;;;;;;;;;;5095966;28;20031;-91
2021/07/25 09:03:07;;;;;;;19.85;11.93;;;;;;;;;;5097027;28;20073;-91
2021/07/25 09:05:32;;;;;;;19.90;13.23;;;;;;;;;;5096779;28;20027;-91
2021/07/25 09:07:58;;;;;;;16.95;12.40;;;;;;;;;;5079596;28;20020;-90
2021/07/25 09:10:24;;;;;;;17.90;11.93;;;;;;;;;;5078554;28;20038;-92
2021/07/25 09:12:51;;;;;;;15.18;10.35;;;;;;;;;;5078669;28;20024;-91
2021/07/25 09:15:24;;;;;;;16.33;11.10;;;;;;;;;;5080703;28;20141;-91
2021/07/25 09:17:50;;;;;;;17.90;12.57;;;;;;;;;;5101173;28;20028;-91
2021/07/25 09:20:34;;;;;;;13.70;10.73;;;;;;;;;;5097408;28;20024;-91
2021/07/25 09:23:03;;;;;;;18.00;12.52;;;;;;;;;;5083868;28;20030;-91
2021/07/25 09:25:37;;;;;;;16.50;11.43;;;;;;;;;;5088761;28;20090;-91
2021/07/25 09:28:03;;;;;;;12.90;10.52;;;;;;;;;;5084741;28;20047;-92
2021/07/25 09:30:29;;;;;;;15.38;10.60;;;;;;;;;;5083934;28;20497;-91
2021/07/25 09:32:56;;;;;;;10.43;8.93;;;;;;;;;;5078718;28;20024;-92
2021/07/25 09:35:30;;;;;;;15.63;10.95;;;;;;;;;;5078302;28;20432;-91
2021/07/25 09:38:04;;;;;;;13.52;11.13;;;;;;;;;;5078419;28;20030;-91
2021/07/25 09:40:32;;;;;;;16.90;11.98;;;;;;;;;;5099878;28;20470;-91
2021/07/25 09:43:07;;;;;;;12.10;10.27;;;;;;;;;;5099914;28;20024;-90
2021/07/25 09:45:32;;;;;;;14.95;10.57;;;;;;;;;;5100600;28;20390;-91
2021/07/25 09:48:09;;;;;;;16.48;11.63;;;;;;;;;;5082755;28;20036;-91
2021/07/25 09:50:35;;;;;;;17.27;11.43;;;;;;;;;;5082897;28;20028;-91
2021/07/25 09:53:00;;;;;;;16.23;11.88;;;;;;;;;;5083053;28;20111;-91
2021/07/25 09:55:29;;;;;;;14.45;11.55;;;;;;;;;;5083026;28;20027;-91
2021/07/25 09:57:55;;;;;;;17.00;10.93;;;;;;;;;;5100540;28;20031;-91
2021/07/25 10:00:20;;;;;;;10.65;9.52;;;;;;;;;;5083272;28;20020;-92
2021/07/25 10:02:46;;;;;;;18.15;9.80;;;;;;;;;;5082138;28;20532;-91
2021/07/25 10:05:13;;;;;;;11.45;9.45;;;;;;;;;;5082361;28;20024;-92
2021/07/25 10:07:40;;;;;;;13.35;9.18;;;;;;;;;;5100301;28;20019;-91
2021/07/25 10:10:09;;;;;;;13.55;7.35;;;;;;;;;;5100428;28;20024;-91
2021/07/25 10:12:36;;;;;;;12.75;7.72;;;;;;;;;;5085289;28;20028;-91
2021/07/25 10:15:04;;;;;;;9.30;6.93;;;;;;;;;;5100497;28;20494;-91
2021/07/25 10:17:35;;;;;;;8.63;7.38;;;;;;;;;;5101277;28;20023;-92
2021/07/25 10:20:06;;;;;;;8.70;7.43;;;;;;;;;;5100034;28;20036;-90
2021/07/25 10:22:35;;;;;;;11.07;8.05;;;;;;;;;;5082893;28;20024;-92
2021/07/25 10:25:06;;;;;;;11.18;8.68;;;;;;;;;;5099684;28;20043;-92
2021/07/25 10:27:32;;;;;;;9.25;7.25;;;;;;;;;;5099262;28;20042;-92
2021/07/25 10:30:11;;;;;;;8.90;7.60;;;;;;;;;;5099843;28;20471;-93
2021/07/25 10:32:38;;;;;;;10.52;7.07;;;;;;;;;;5099183;28;20028;-89
2021/07/25 10:35:06;;;;;;;8.40;6.38;;;;;;;;;;5101642;28;20024;-89
2021/07/25 10:37:36;;;;;;;6.90;5.80;;;;;;;;;;5082570;28;20024;-91
2021/07/25 10:40:02;;;;;;;9.02;6.60;;;;;;;;;;5084252;28;20024;-92
2021/07/25 10:42:30;;;;;;;6.93;6.00;;;;;;;;;;5081392;28;20498;-89
2021/07/25 10:44:56;;;;;;;9.85;6.18;;;;;;;;;;5082965;28;20035;-90
2021/07/25 10:47:25;;;;;;;11.93;6.28;;;;;;;;;;5081457;28;20409;-89
2021/07/25 10:50:07;;;;;;;9.05;6.13;;;;;;;;;;5080909;28;20024;-89
2021/07/25 10:53:06;;;;;;;9.30;5.30;;;;;;;;;;5099598;28;20499;-91
2021/07/25 10:55:34;;;;;;;5.90;5.30;;;;;;;;;;5081613;28;20647;-90
2021/07/25 10:58:07;;;;;;;7.10;5.53;;;;;;;;;;5099218;28;20024;-89
2021/07/25 11:00:55;;;;;;;6.90;5.13;;;;;;;;;;5081722;28;20440;-90
2021/07/25 11:03:30;;;;;;;7.07;4.85;;;;;;;;;;5099216;28;20020;-90
2021/07/25 11:06:01;;;;;;;5.15;4.63;;;;;;;;;;5100289;28;20023;-91
2021/07/25 11:08:30;;;;;;;7.30;5.00;;;;;;;;;;5083415;28;20115;-91
2021/07/25 11:10:55;;;;;;;8.38;4.88;;;;;;;;;;5099471;28;20084;-89
2021/07/25 11:13:38;;;;;;;7.20;5.00;;;;;;;;;;5082422;28;20051;-91
2021/07/25 11:16:32;;;;;;;8.88;5.18;;;;;;;;;;5083310;28;20092;-92
2021/07/25 11:18:58;;;;;;;6.32;4.72;;;;;;;;;;5081657;28;20499;-91
2021/07/25 11:21:36;;;;;;;10.20;5.03;;;;;;;;;;5100801;28;20035;-90
2021/07/25 11:24:26;;;;;;;7.35;4.10;;;;;;;;;;5099891;28;20024;-91
2021/07/25 11:26:57;;;;;;;6.43;5.07;;;;;;;;;;5080832;28;20038;-91
2021/07/25 11:29:23;;;;;;;7.43;4.88;;;;;;;;;;5081053;28;20020;-90
2021/07/25 11:31:50;;;;;;;11.35;4.88;;;;;;;;;;5080172;28;20177;-91
2021/07/25 11:34:45;;;;;;;6.97;4.80;;;;;;;;;;5081456;28;20031;-91
2021/07/25 11:37:13;;;;;;;7.20;4.97;;;;;;;;;;5078910;28;20039;-91
2021/07/25 11:39:39;;;;;;;12.77;5.40;;;;;;;;;;5080301;28;20510;-92
2021/07/25 11:42:06;;;;;;;7.95;4.85;;;;;;;;;;5080190;28;20087;-91
2021/07/25 11:44:33;;;;;;;8.05;5.20;;;;;;;;;;5085214;28;20062;-92
2021/07/25 11:47:00;;;;;;;9.75;4.90;;;;;;;;;;5115527;28;20020;-90
2021/07/25 11:49:27;;;;;;;13.57;5.25;;;;;;;;;;5118770;28;20019;-90
2021/07/25 11:52:01;;;;;;;7.88;4.93;;;;;;;;;;5089590;28;20132;-91
2021/07/25 11:54:28;;;;;;;8.20;4.65;;;;;;;;;;5084572;28;20023;-91
2021/07/25 11:56:59;;;;;;;5.72;4.65;;;;;;;;;;5082248;28;20471;-91
2021/07/25 11:59:25;;;;;;;5.32;3.90;;;;;;;;;;5099487;28;20103;-91
2021/07/25 12:01:51;;;;;;;5.78;4.47;;;;;;;;;;5102393;28;20035;-92
2021/07/25 12:04:23;;;;;;;6.43;4.60;;;;;;;;;;5094094;28;20076;-90
2021/07/25 12:06:58;;;;;;;;;;;;;;;;;;5108230;28;20075;-90
2021/07/25 12:09:23;;;;;;;4.97;4.40;;;;;;;;;;5099632;28;19908;-91
2021/07/25 12:11:49;;;;;;;7.47;4.78;;;;;;;;;;5080827;28;20028;-91
2021/07/25 12:14:14;;;;;;;7.38;5.03;;;;;;;;;;5083474;28;20043;-92
2021/07/25 12:16:48;;;;;;;9.27;4.60;;;;;;;;;;5102833;28;20055;-92
2021/07/25 12:19:15;;;;;;;9.30;4.38;;;;;;;;;;5105230;28;20448;-92
2021/07/25 12:21:40;;;;;;;10.60;5.22;;;;;;;;;;5084370;28;20024;-93
2021/07/25 12:24:30;;;;;;;10.25;4.95;;;;;;;;;;5081365;28;20024;-90
2021/07/25 12:26:57;;;;;;;7.22;4.93;;;;;;;;;;5080443;28;20020;-91
2021/07/25 12:29:45;;;;;;;8.32;4.80;;;;;;;;;;5082536;28;20020;-91
2021/07/25 12:32:30;;;;;;;7.88;4.88;;;;;;;;;;5100749;28;20024;-91
2021/07/25 12:35:16;;;;;;;5.63;4.65;;;;;;;;;;5082178;28;20509;-91
2021/07/25 12:37:49;;;;;;;6.75;4.50;;;;;;;;;;5101304;28;20024;-91
2021/07/25 12:40:31;;;;;;;6.68;4.28;;;;;;;;;;5083819;28;20443;-91
2021/07/25 12:42:58;;;;;;;7.38;4.00;;;;;;;;;;5065591;28;20058;-90
2021/07/25 12:45:38;;;;;;;5.28;3.70;;;;;;;;;;5082664;28;20052;-91
2021/07/25 12:48:13;;;;;;;5.20;4.07;;;;;;;;;;5082319;28;20089;-91
2021/07/25 12:53:44;;;;;;;8.15;4.05;;;;;;;;;;5095241;28;20497;-91
2021/07/25 12:56:17;;;;;;;6.32;3.97;;;;;;;;;;5099453;28;20501;-91
2021/07/25 12:58:47;;;;;;;6.30;3.83;;;;;;;;;;5083313;28;20024;-91
2021/07/25 13:03:47;;;;;;;14.07;5.00;;;;;;;;;;5101312;28;20028;-91
2021/07/25 13:06:17;;;;;;;7.13;3.97;;;;;;;;;;5085397;28;20395;-92
2021/07/25 13:08:44;;;;;;;5.70;3.90;;;;;;;;;;5101935;28;20023;-91
2021/07/25 13:11:11;;;;;;;10.30;3.90;;;;;;;;;;5082987;28;20085;-91
2021/07/25 13:13:37;;;;;;;7.55;4.28;;;;;;;;;;5083042;28;20058;-92
2021/07/25 13:16:05;;;;;;;8.50;4.45;;;;;;;;;;5103596;28;20028;-91
2021/07/25 13:18:30;;;;;;;6.35;3.90;;;;;;;;;;5084495;28;20031;-92
2021/07/25 13:20:56;;;;;;;8.38;4.47;;;;;;;;;;5084757;28;20024;-92
2021/07/25 13:23:21;;;;;;;7.25;4.28;;;;;;;;;;5085817;28;20039;-91
2021/07/25 13:25:46;;;;;;;4.93;3.30;;;;;;;;;;5104361;28;20102;-92
2021/07/25 13:28:12;;;;;;;6.97;4.03;;;;;;;;;;5082951;28;20024;-91
2021/07/25 13:30:37;;;;;;;8.65;4.15;;;;;;;;;;5088405;28;20020;-91
2021/07/25 13:33:02;;;;;;;6.95;3.97;;;;;;;;;;5085111;28;20471;-91
2021/07/25 13:35:28;;;;;;;5.50;3.33;;;;;;;;;;5098241;28;20070;-91
2021/07/25 13:37:53;;;;;;;7.57;3.45;;;;;;;;;;5079874;28;20413;-91
2021/07/25 13:40:19;;;;;;;7.38;3.65;;;;;;;;;;5079869;28;20024;-91
2021/07/25 13:42:44;;;;;;;6.90;3.65;;;;;;;;;;5080033;28;20020;-91
2021/07/25 13:45:10;;;;;;;8.85;4.10;;;;;;;;;;5079575;28;20023;-90
2021/07/25 13:47:36;;;;;;;6.40;3.40;;;;;;;;;;5100962;28;20028;-92
2021/07/25 13:50:03;;;;;;;7.93;3.85;;;;;;;;;;5083502;28;20024;-92
2021/07/25 13:52:29;;;;;;;4.03;3.55;;;;;;;;;;5084498;28;20189;-91
2021/07/25 13:54:55;;;;;;;5.13;3.45;;;;;;;;;;5100515;28;20497;-91
2021/07/25 13:57:21;;;;;;;5.43;3.92;;;;;;;;;;5100110;28;20028;-91
2021/07/25 13:59:46;;;;;;;7.55;4.07;;;;;;;;;;5082579;28;20084;-92
2021/07/25 14:02:11;;;;;;;6.70;3.95;;;;;;;;;;5081638;28;20024;-91
2021/07/25 14:04:37;;;;;;;4.68;3.65;;;;;;;;;;5099665;28;20364;-91
2021/07/25 14:07:02;;;;;;;6.38;3.20;;;;;;;;;;5102706;28;20024;-91
2021/07/25 14:09:29;;;;;;;5.18;3.53;;;;;;;;;;5100403;28;20016;-89
2021/07/25 14:11:54;;;;;;;7.28;3.25;;;;;;;;;;5099096;28;20008;-91
2021/07/25 14:14:20;;;;;;;7.25;3.55;;;;;;;;;;5082763;28;20111;-91
2021/07/25 14:16:45;;;;;;;11.57;4.45;;;;;;;;;;5082621;28;20087;-91
2021/07/25 14:19:10;;;;;;;6.38;3.30;;;;;;;;;;5098849;28;20032;-91
2021/07/25 14:21:35;;;;;;;10.20;3.72;;;;;;;;;;5101831;28;20020;-92
2021/07/25 14:24:01;;;;;;;5.28;3.20;;;;;;;;;;5101701;28;20043;-92
2021/07/25 14:26:27;;;;;;;6.95;3.28;;;;;;;;;;5085777;28;20114;-91
2021/07/25 14:28:52;;;;;;;5.63;2.67;;;;;;;;;;5086762;28;20026;-92
2021/07/25 14:31:18;;;;;;;6.93;3.20;;;;;;;;;;5086351;28;20032;-91
2021/07/25 14:33:43;;;;;;;5.70;2.83;;;;;;;;;;5086077;28;20031;-92